createdAt,value
2023-03-27T00:01:13.290Z,98250.72
2023-03-27T00:03:40.423Z,98256.56
2023-03-27T00:06:16.832Z,98251.88
2023-03-27T00:08:46.460Z,98250.84
2023-03-27T00:11:14.627Z,98241.88
2023-03-27T00:13:49.025Z,98239.84
2023-03-27T00:16:22.417Z,98245.00
2023-03-27T00:18:49.380Z,98237.06
2023-03-27T00:21:16.235Z,98246.00
2023-03-27T00:23:42.979Z,98242.34
2023-03-27T00:26:10.663Z,98252.91
2023-03-27T00:28:37.359Z,98255.28
2023-03-27T00:31:04.221Z,98249.22
2023-03-27T00:33:32.309Z,98252.88
2023-03-27T00:35:58.983Z,98249.66
2023-03-27T00:38:25.772Z,98246.56
2023-03-27T00:40:55.267Z,98245.75
2023-03-27T00:43:34.314Z,98248.84
2023-03-27T00:46:03.965Z,98250.91
2023-03-27T00:48:35.453Z,98243.69
2023-03-27T00:51:04.120Z,98248.50
2023-03-27T00:53:32.310Z,98248.16
2023-03-27T00:56:02.965Z,98248.97
2023-03-27T00:58:31.669Z,98244.16
2023-03-27T01:00:58.952Z,98247.47
2023-03-27T01:03:30.344Z,98243.56
2023-03-27T01:06:00.512Z,98247.47
2023-03-27T01:08:29.900Z,98244.81
2023-03-27T01:11:11.654Z,98249.88
2023-03-27T01:14:19.321Z,98241.38
2023-03-27T01:17:12.234Z,98249.44
2023-03-27T01:20:01.023Z,98244.00
2023-03-27T01:23:02.380Z,98244.69
2023-03-27T01:26:36.241Z,98245.50
2023-03-27T01:29:10.520Z,98249.16
2023-03-27T01:32:02.041Z,98244.47
2023-03-27T01:34:34.528Z,98248.13
2023-03-27T01:37:06.473Z,98243.44
2023-03-27T01:39:39.377Z,98244.09
2023-03-27T01:42:29.255Z,98242.28
2023-03-27T01:45:17.119Z,98250.31
2023-03-27T01:48:11.559Z,98255.84
2023-03-27T01:50:49.754Z,98259.22
2023-03-27T01:53:24.188Z,98243.41
2023-03-27T01:55:58.515Z,98246.72
2023-03-27T01:58:33.236Z,98248.44
2023-03-27T02:01:01.909Z,98242.13
2023-03-27T02:03:35.998Z,98237.50
2023-03-27T02:06:13.519Z,98248.19
2023-03-27T02:08:50.581Z,98237.88
2023-03-27T02:11:17.423Z,98249.59
2023-03-27T02:13:54.560Z,98254.28
2023-03-27T02:16:33.682Z,98253.25
2023-03-27T02:19:20.894Z,98246.81
2023-03-27T02:21:48.219Z,98251.50
2023-03-27T02:24:18.422Z,98243.34
2023-03-27T02:26:46.915Z,98248.28
2023-03-27T02:29:31.845Z,98254.72
2023-03-27T02:32:37.145Z,98251.25
2023-03-27T02:35:29.584Z,98251.69
2023-03-27T02:38:13.551Z,98247.88
2023-03-27T02:40:51.942Z,98259.81
2023-03-27T02:43:48.573Z,98253.41
2023-03-27T02:46:28.115Z,98253.31
2023-03-27T02:48:58.584Z,98256.81
2023-03-27T02:51:37.860Z,98255.66
2023-03-27T02:54:24.170Z,98263.13
2023-03-27T02:57:00.217Z,98256.81
2023-03-27T02:59:35.915Z,98251.56
2023-03-27T03:02:10.556Z,98264.16
2023-03-27T03:04:43.256Z,98264.69
2023-03-27T03:07:11.489Z,98271.78
2023-03-27T03:09:40.554Z,98266.50
2023-03-27T03:12:08.618Z,98263.78
2023-03-27T03:14:38.735Z,98261.25
2023-03-27T03:17:05.507Z,98263.88
2023-03-27T03:19:32.495Z,98272.00
2023-03-27T03:22:00.311Z,98274.88
2023-03-27T03:24:28.347Z,98270.41
2023-03-27T03:26:55.227Z,98273.69
2023-03-27T03:29:21.883Z,98277.34
2023-03-27T03:31:49.711Z,98269.28
2023-03-27T03:34:18.711Z,98279.25
2023-03-27T03:36:49.826Z,98279.84
2023-03-27T03:39:17.532Z,98282.19
2023-03-27T03:41:44.192Z,98279.41
2023-03-27T03:44:11.924Z,98286.72
2023-03-27T03:46:40.263Z,98293.16
2023-03-27T03:49:07.520Z,98290.31
2023-03-27T03:51:37.209Z,98301.66
2023-03-27T03:54:06.117Z,98300.78
2023-03-27T03:56:34.398Z,98301.22
2023-03-27T03:59:01.623Z,98304.44
2023-03-27T04:01:28.901Z,98300.78
2023-03-27T04:03:55.743Z,98290.25
2023-03-27T04:06:25.353Z,98291.47
2023-03-27T04:08:54.412Z,98291.47
2023-03-27T04:11:21.375Z,98295.94
2023-03-27T04:13:48.083Z,98290.78
2023-03-27T04:16:15.754Z,98289.78
2023-03-27T04:18:42.767Z,98292.56
2023-03-27T04:21:15.721Z,98288.47
2023-03-27T04:23:42.834Z,98302.28
2023-03-27T04:26:13.590Z,98306.75
2023-03-27T04:28:41.453Z,98301.50
2023-03-27T04:31:11.859Z,98310.41
2023-03-27T04:33:41.230Z,98308.38
2023-03-27T04:36:09.026Z,98299.88
2023-03-27T04:38:42.043Z,98305.91
2023-03-27T04:41:09.050Z,98310.59
2023-03-27T04:43:41.784Z,98303.47
2023-03-27T04:46:10.094Z,98319.50
2023-03-27T04:48:38.884Z,98311.00
2023-03-27T04:51:08.282Z,98317.63
2023-03-27T04:53:37.863Z,98322.31
2023-03-27T04:56:06.483Z,98325.53
2023-03-27T04:58:36.731Z,98319.88
2023-03-27T05:01:05.676Z,98320.91
2023-03-27T05:03:34.819Z,98322.88
2023-03-27T05:06:04.035Z,98326.09
2023-03-27T05:08:31.126Z,98322.44
2023-03-27T05:10:58.129Z,98312.69
2023-03-27T05:13:26.189Z,98315.53
2023-03-27T05:15:52.939Z,98325.66
2023-03-27T05:18:21.005Z,98320.75
2023-03-27T05:20:50.009Z,98328.28
2023-03-27T05:23:16.850Z,98336.78
2023-03-27T05:25:59.859Z,98339.56
2023-03-27T05:28:33.402Z,98341.84
2023-03-27T05:31:02.520Z,98340.00
2023-03-27T05:33:29.241Z,98344.09
2023-03-27T05:35:58.513Z,98346.72
2023-03-27T05:38:26.351Z,98338.25
2023-03-27T05:40:52.981Z,98340.31
2023-03-27T05:43:19.568Z,98341.00
2023-03-27T05:45:46.328Z,98338.09
2023-03-27T05:48:14.102Z,98344.53
2023-03-27T05:50:41.733Z,98350.94
2023-03-27T05:53:13.844Z,98347.88
2023-03-27T05:55:40.466Z,98357.31
2023-03-27T05:58:11.196Z,98349.19
2023-03-27T06:00:38.903Z,98359.28
2023-03-27T06:03:07.022Z,98359.28
2023-03-27T06:05:34.031Z,98358.81
2023-03-27T06:08:00.844Z,98366.88
2023-03-27T06:10:30.501Z,98368.63
2023-03-27T06:13:04.457Z,98374.03
2023-03-27T06:15:31.714Z,98378.63
2023-03-27T06:17:58.514Z,98386.91
2023-03-27T06:20:26.257Z,98381.19
2023-03-27T06:22:59.562Z,98378.69
2023-03-27T06:25:31.318Z,98382.34
2023-03-27T06:27:59.374Z,98386.38
2023-03-27T06:30:29.061Z,98389.38
2023-03-27T06:32:59.869Z,98400.50
2023-03-27T06:35:29.555Z,98406.94
2023-03-27T06:37:57.562Z,98403.28
2023-03-27T06:40:29.079Z,98402.47
2023-03-27T06:42:58.924Z,98412.81
2023-03-27T06:45:34.035Z,98417.88
2023-03-27T06:48:17.809Z,98406.63
2023-03-27T06:50:48.894Z,98405.16
2023-03-27T06:55:49.080Z,98402.75
2023-03-27T06:58:19.983Z,98401.66
2023-03-27T07:00:48.880Z,98408.88
2023-03-27T07:03:16.271Z,98410.84
2023-03-27T07:05:42.953Z,98415.81
2023-03-27T07:08:21.770Z,98412.00
2023-03-27T07:10:59.940Z,98416.97
2023-03-27T07:13:37.017Z,98418.81
2023-03-27T07:16:04.544Z,98422.59
2023-03-27T07:18:31.467Z,98427.13
2023-03-27T07:20:58.404Z,98425.72
2023-03-27T07:23:25.426Z,98432.16
2023-03-27T07:25:53.461Z,98438.16
2023-03-27T07:28:20.975Z,98431.91
2023-03-27T07:30:47.705Z,98446.88
2023-03-27T07:33:15.062Z,98439.06
2023-03-27T07:35:46.588Z,98429.59
2023-03-27T07:38:14.578Z,98445.38
2023-03-27T07:40:45.236Z,98435.81
2023-03-27T07:43:12.362Z,98439.13
2023-03-27T07:45:39.057Z,98428.06
2023-03-27T07:48:16.842Z,98421.84
2023-03-27T07:50:45.264Z,98421.13
2023-03-27T07:53:32.891Z,98434.34
2023-03-27T07:56:01.228Z,98428.13
2023-03-27T07:58:29.528Z,98424.56
2023-03-27T08:01:02.683Z,98421.78
2023-03-27T08:03:30.945Z,98426.34
2023-03-27T08:05:59.873Z,98425.63
2023-03-27T08:08:27.380Z,98424.72
2023-03-27T08:10:55.645Z,98425.13
2023-03-27T08:13:22.625Z,98427.63
2023-03-27T08:15:49.708Z,98429.34
2023-03-27T08:18:16.442Z,98438.09
2023-03-27T08:20:43.090Z,98438.66
2023-03-27T08:23:11.182Z,98442.03
2023-03-27T08:25:37.790Z,98442.50
2023-03-27T08:28:04.462Z,98443.72
2023-03-27T08:30:31.215Z,98447.00
2023-03-27T08:33:00.225Z,98448.69
2023-03-27T08:35:27.093Z,98445.16
2023-03-27T08:37:55.314Z,98450.50
2023-03-27T08:40:29.368Z,98443.69
2023-03-27T08:43:01.200Z,98447.94
2023-03-27T08:45:33.419Z,98443.13
2023-03-27T08:48:09.136Z,98455.66
2023-03-27T08:50:46.810Z,98453.41
2023-03-27T08:53:29.635Z,98449.81
2023-03-27T08:55:58.557Z,98446.25
2023-03-27T08:58:25.448Z,98452.75
2023-03-27T09:01:32.162Z,98453.41
2023-03-27T09:04:11.466Z,98453.72
2023-03-27T09:06:58.015Z,98459.34
2023-03-27T09:09:34.664Z,98448.66
2023-03-27T09:12:30.144Z,98450.66
2023-03-27T09:15:09.578Z,98448.88
2023-03-27T09:18:00.493Z,98453.47
2023-03-27T09:20:40.851Z,98453.03
2023-03-27T09:23:31.913Z,98456.13
2023-03-27T09:26:03.413Z,98458.53
2023-03-27T09:28:52.017Z,98468.44
2023-03-27T09:31:40.686Z,98458.28
2023-03-27T09:34:12.002Z,98461.00
2023-03-27T09:36:38.853Z,98470.28
2023-03-27T09:39:08.221Z,98456.50
2023-03-27T09:41:41.614Z,98454.41
2023-03-27T09:44:26.657Z,98470.41
2023-03-27T09:47:24.355Z,98464.59
2023-03-27T09:49:58.460Z,98480.06
2023-03-27T09:52:40.107Z,98475.81
2023-03-27T09:55:30.657Z,98484.19
2023-03-27T09:58:22.994Z,98477.56
2023-03-27T10:01:09.627Z,98478.69
2023-03-27T10:03:49.181Z,98487.81
2023-03-27T10:06:27.978Z,98487.34
2023-03-27T10:08:56.771Z,98485.97
2023-03-27T10:11:28.867Z,98501.44
2023-03-27T10:13:58.281Z,98500.06
2023-03-27T10:16:26.268Z,98505.06
2023-03-27T10:18:55.990Z,98507.41
2023-03-27T10:21:33.911Z,98512.25
2023-03-27T10:24:06.548Z,98514.09
2023-03-27T10:26:38.414Z,98520.19
2023-03-27T10:29:23.280Z,98514.06
2023-03-27T10:31:53.065Z,98523.09
2023-03-27T10:34:38.745Z,98516.75
2023-03-27T10:37:34.193Z,98513.56
2023-03-27T10:40:02.963Z,98522.91
2023-03-27T10:42:32.452Z,98528.81
2023-03-27T10:44:59.908Z,98524.00
2023-03-27T10:47:31.561Z,98533.03
2023-03-27T10:50:27.887Z,98526.47
2023-03-27T10:53:17.659Z,98534.81
2023-03-27T10:55:55.803Z,98544.44
2023-03-27T10:58:30.778Z,98549.47
2023-03-27T11:01:04.898Z,98546.41
2023-03-27T11:03:45.317Z,98544.13
2023-03-27T11:06:16.893Z,98552.63
2023-03-27T11:09:01.995Z,98560.19
2023-03-27T11:11:45.051Z,98559.19
2023-03-27T11:14:23.625Z,98566.00
2023-03-27T11:16:57.077Z,98576.00
2023-03-27T11:20:07.092Z,98570.03
2023-03-27T11:22:44.666Z,98583.91
2023-03-27T11:25:48.173Z,98568.53
2023-03-27T11:28:47.571Z,98582.16
2023-03-27T11:31:32.608Z,98576.44
2023-03-27T11:34:08.208Z,98583.22
2023-03-27T11:36:56.337Z,98601.13
2023-03-27T11:39:46.852Z,98604.91
2023-03-27T11:42:21.473Z,98594.47
2023-03-27T11:44:50.196Z,98587.31
2023-03-27T11:47:44.453Z,98594.34
2023-03-27T11:50:22.730Z,98598.94
2023-03-27T11:53:02.351Z,98597.06
2023-03-27T11:55:39.438Z,98595.59
2023-03-27T11:58:33.330Z,98598.91
2023-03-27T12:01:27.068Z,98592.63
2023-03-27T12:04:13.288Z,98605.34
2023-03-27T12:06:42.914Z,98600.56
2023-03-27T12:09:22.841Z,98599.28
2023-03-27T12:12:14.705Z,98602.16
2023-03-27T12:14:56.647Z,98603.63
2023-03-27T12:17:42.023Z,98608.38
2023-03-27T12:20:20.695Z,98619.56
2023-03-27T12:22:49.993Z,98623.75
2023-03-27T12:25:42.113Z,98625.81
2023-03-27T12:28:45.452Z,98629.72
2023-03-27T12:31:19.277Z,98630.88
2023-03-27T12:34:08.754Z,98634.47
2023-03-27T12:36:41.333Z,98628.69
2023-03-27T12:39:26.383Z,98625.84
2023-03-27T12:41:54.316Z,98629.56
2023-03-27T12:44:30.151Z,98635.66
2023-03-27T12:47:08.460Z,98635.03
2023-03-27T12:49:47.987Z,98630.69
2023-03-27T12:52:15.793Z,98636.16
2023-03-27T12:55:06.090Z,98618.66
2023-03-27T12:57:46.163Z,98617.03
2023-03-27T13:00:21.520Z,98622.25
2023-03-27T13:03:06.756Z,98622.84
2023-03-27T13:05:59.422Z,98620.03
2023-03-27T13:08:45.483Z,98614.28
2023-03-27T13:11:36.771Z,98612.94
2023-03-27T13:14:13.103Z,98623.56
2023-03-27T13:17:01.198Z,98619.97
2023-03-27T13:19:37.711Z,98619.69
2023-03-27T13:22:42.261Z,98615.97
2023-03-27T13:25:31.735Z,98619.69
2023-03-27T13:28:31.991Z,98626.75
2023-03-27T13:31:02.706Z,98625.91
2023-03-27T13:33:29.308Z,98629.09
2023-03-27T13:35:59.215Z,98603.47
2023-03-27T13:38:44.776Z,98625.28
2023-03-27T13:41:45.187Z,98615.16
2023-03-27T13:44:30.325Z,98624.78
2023-03-27T13:47:19.882Z,98627.00
2023-03-27T13:50:31.542Z,98626.88
2023-03-27T13:53:18.120Z,98631.81
2023-03-27T13:55:54.244Z,98631.84
2023-03-27T13:58:55.804Z,98632.09
2023-03-27T14:01:22.707Z,98638.13
2023-03-27T14:04:07.581Z,98635.63
2023-03-27T14:07:08.343Z,98639.84
2023-03-27T14:09:55.974Z,98651.69
2023-03-27T14:12:52.034Z,98634.81
2023-03-27T14:16:01.765Z,98653.69
2023-03-27T14:18:31.385Z,98650.66
2023-03-27T14:21:03.815Z,98651.66
2023-03-27T14:23:45.879Z,98650.00
2023-03-27T14:26:25.792Z,98660.75
2023-03-27T14:28:55.604Z,98650.78
2023-03-27T14:31:23.916Z,98648.88
2023-03-27T14:34:03.833Z,98651.69
2023-03-27T14:36:34.037Z,98658.09
2023-03-27T14:39:03.853Z,98662.38
2023-03-27T14:41:32.625Z,98664.47
2023-03-27T14:44:04.561Z,98662.44
2023-03-27T14:46:31.422Z,98670.22
2023-03-27T14:49:00.161Z,98675.13
2023-03-27T14:51:37.063Z,98668.78
2023-03-27T14:54:08.348Z,98678.34
2023-03-27T14:56:47.429Z,98671.31
2023-03-27T14:59:20.739Z,98691.00
2023-03-27T15:01:50.224Z,98691.63
2023-03-27T15:04:17.331Z,98693.75
2023-03-27T15:06:44.015Z,98704.09
2023-03-27T15:09:19.157Z,98704.69
2023-03-27T15:12:05.540Z,98706.63
2023-03-27T15:14:32.510Z,98716.56
2023-03-27T15:17:08.301Z,98732.66
2023-03-27T15:19:48.865Z,98727.81
2023-03-27T15:22:30.100Z,98728.22
2023-03-27T15:25:03.018Z,98730.22
2023-03-27T15:27:43.778Z,98740.38
2023-03-27T15:30:36.074Z,98738.19
2023-03-27T15:33:05.664Z,98737.78
2023-03-27T15:35:38.804Z,98752.06
2023-03-27T15:38:07.614Z,98749.31
2023-03-27T15:40:42.983Z,98746.31
2023-03-27T15:43:23.432Z,98752.91
2023-03-27T15:46:10.547Z,98754.66
2023-03-27T15:48:40.764Z,98767.91
2023-03-27T15:51:14.624Z,98773.53
2023-03-27T15:53:47.787Z,98763.75
2023-03-27T15:59:37.367Z,98768.03
2023-03-27T16:02:20.800Z,98778.13
2023-03-27T16:04:54.382Z,98781.28
2023-03-27T16:07:46.482Z,98797.66
2023-03-27T16:10:15.622Z,98800.09
2023-03-27T16:12:56.510Z,98815.56
2023-03-27T16:15:29.484Z,98800.03
2023-03-27T16:18:00.180Z,98808.47
2023-03-27T16:20:28.041Z,98815.25
2023-03-27T16:22:54.630Z,98823.00
2023-03-27T16:25:21.344Z,98819.44
2023-03-27T16:27:51.276Z,98818.69
2023-03-27T16:30:30.623Z,98821.56
2023-03-27T16:32:57.368Z,98816.69
2023-03-27T16:35:24.202Z,98823.75
2023-03-27T16:37:52.049Z,98820.56
2023-03-27T16:40:20.304Z,98834.28
2023-03-27T16:42:48.184Z,98837.84
2023-03-27T16:45:14.939Z,98839.88
2023-03-27T16:47:41.828Z,98855.50
2023-03-27T16:50:18.262Z,98853.81
2023-03-27T16:52:44.870Z,98851.03
2023-03-27T16:55:13.884Z,98862.38
2023-03-27T16:57:41.806Z,98846.41
2023-03-27T17:00:11.591Z,98865.94
2023-03-27T17:02:38.365Z,98863.69
2023-03-27T17:05:09.239Z,98871.09
2023-03-27T17:07:37.256Z,98882.88
2023-03-27T17:10:05.296Z,98879.72
2023-03-27T17:12:32.386Z,98889.97
2023-03-27T17:14:59.113Z,98886.59
2023-03-27T17:17:27.540Z,98893.53
2023-03-27T17:19:55.869Z,98896.41
2023-03-27T17:22:23.939Z,98899.16
2023-03-27T17:24:56.536Z,98901.50
2023-03-27T17:27:25.870Z,98902.25
2023-03-27T17:29:52.579Z,98904.59
2023-03-27T17:32:19.440Z,98900.78
2023-03-27T17:34:47.450Z,98907.41
2023-03-27T17:37:14.078Z,98913.38
2023-03-27T17:39:41.112Z,98911.91
2023-03-27T17:42:07.712Z,98916.44
2023-03-27T17:44:34.341Z,98926.44
2023-03-27T17:47:01.137Z,98921.41
2023-03-27T17:49:29.735Z,98932.25
2023-03-27T17:51:56.444Z,98924.41
2023-03-27T17:54:23.130Z,98927.06
2023-03-27T17:56:50.245Z,98931.59
2023-03-27T17:59:16.933Z,98932.88
2023-03-27T18:01:45.840Z,98938.44
2023-03-27T18:04:13.365Z,98941.56
2023-03-27T18:06:40.076Z,98938.63
2023-03-27T18:09:07.449Z,98944.41
2023-03-27T18:11:35.539Z,98935.75
2023-03-27T18:14:02.141Z,98932.72
2023-03-27T18:16:29.977Z,98943.47
2023-03-27T18:18:57.612Z,98941.56
2023-03-27T18:21:25.590Z,98929.50
2023-03-27T18:23:53.996Z,98932.72
2023-03-27T18:26:20.701Z,98936.25
2023-03-27T18:28:47.366Z,98936.56
2023-03-27T18:31:15.343Z,98934.50
2023-03-27T18:33:42.057Z,98932.50
2023-03-27T18:36:10.673Z,98935.47
2023-03-27T18:38:41.270Z,98947.16
2023-03-27T18:41:09.199Z,98925.63
2023-03-27T18:43:36.550Z,98932.91
2023-03-27T18:46:05.781Z,98927.88
2023-03-27T18:48:33.082Z,98928.34
2023-03-27T18:51:02.629Z,98925.69
2023-03-27T18:53:32.895Z,98923.03
2023-03-27T18:56:00.122Z,98929.16
2023-03-27T18:58:28.335Z,98937.91
2023-03-27T19:00:56.901Z,98935.81
2023-03-27T19:03:25.775Z,98933.94
2023-03-27T19:05:54.504Z,98935.81
2023-03-27T19:08:22.098Z,98940.63
2023-03-27T19:10:48.951Z,98943.84
2023-03-27T19:13:16.124Z,98952.88
2023-03-27T19:15:42.985Z,98943.03
2023-03-27T19:18:09.823Z,98937.47
2023-03-27T19:20:36.734Z,98944.91
2023-03-27T19:23:03.980Z,98939.00
2023-03-27T19:25:33.980Z,98957.09
2023-03-27T19:28:01.409Z,98937.91
2023-03-27T19:30:28.420Z,98949.13
2023-03-27T19:32:55.833Z,98941.59
2023-03-27T19:35:22.535Z,98944.03
2023-03-27T19:37:49.222Z,98952.81
2023-03-27T19:40:16.037Z,98952.59
2023-03-27T19:42:42.775Z,98957.09
2023-03-27T19:45:10.168Z,98955.47
2023-03-27T19:47:37.257Z,98960.00
2023-03-27T19:50:08.163Z,98949.34
2023-03-27T19:52:35.241Z,98955.72
2023-03-27T19:55:02.392Z,98960.00
2023-03-27T19:57:29.434Z,98959.75
2023-03-27T19:59:56.127Z,98955.47
2023-03-27T20:02:22.809Z,98966.13
2023-03-27T20:04:49.456Z,98962.66
2023-03-27T20:07:16.172Z,98978.31
2023-03-27T20:09:43.447Z,98969.50
2023-03-27T20:12:11.432Z,98969.28
2023-03-27T20:14:38.076Z,98965.00
2023-03-27T20:17:07.952Z,98968.69
2023-03-27T20:19:46.204Z,98959.00
2023-03-27T20:22:12.922Z,98969.66
2023-03-27T20:24:40.276Z,98971.28
2023-03-27T20:27:08.212Z,98972.09
2023-03-27T20:29:34.830Z,98958.53
2023-03-27T20:32:01.473Z,98964.44
2023-03-27T20:34:28.087Z,98961.75
2023-03-27T20:36:55.610Z,98961.75
2023-03-27T20:39:23.342Z,98954.81
2023-03-27T20:41:51.321Z,98968.13
2023-03-27T20:44:17.973Z,98965.47
2023-03-27T20:46:51.601Z,98970.22
2023-03-27T20:49:40.731Z,98967.31
2023-03-27T20:52:17.484Z,98974.50
2023-03-27T20:54:44.558Z,98978.22
2023-03-27T20:57:12.977Z,98966.44
2023-03-27T20:59:39.723Z,98971.75
2023-03-27T21:02:06.826Z,98977.56
2023-03-27T21:04:33.659Z,98984.19
2023-03-27T21:07:00.321Z,98979.66
2023-03-27T21:09:29.292Z,98980.72
2023-03-27T21:11:56.349Z,98975.06
2023-03-27T21:14:23.554Z,98982.00
2023-03-27T21:16:50.373Z,98979.56
2023-03-27T21:19:17.202Z,98974.81
2023-03-27T21:21:45.280Z,98973.09
2023-03-27T21:24:11.991Z,98979.00
2023-03-27T21:26:38.878Z,98967.22
2023-03-27T21:29:06.014Z,98970.44
2023-03-27T21:31:32.696Z,98981.34
2023-03-27T21:33:59.404Z,98972.53
2023-03-27T21:36:28.823Z,98978.44
2023-03-27T21:38:56.669Z,98986.31
2023-03-27T21:41:23.790Z,98977.53
2023-03-27T21:43:50.716Z,98978.34
2023-03-27T21:46:17.454Z,98985.75
2023-03-27T21:48:49.300Z,98985.69
2023-03-27T21:51:16.132Z,98981.41
2023-03-27T21:53:44.046Z,98976.22
2023-03-27T21:56:11.069Z,98989.47
2023-03-27T21:58:38.205Z,98982.53
2023-03-27T22:01:05.528Z,98994.91
2023-03-27T22:03:32.157Z,98986.03
2023-03-27T22:06:12.498Z,98980.84
2023-03-27T22:08:41.669Z,98996.31
2023-03-27T22:11:10.269Z,98991.19
2023-03-27T22:13:39.397Z,98986.81
2023-03-27T22:16:12.078Z,99002.25
2023-03-27T22:18:39.065Z,99004.38
2023-03-27T22:21:34.933Z,99002.25
2023-03-27T22:24:01.759Z,99006.75
2023-03-27T22:26:37.217Z,99001.63
2023-03-27T22:29:05.463Z,99003.97
2023-03-27T22:31:32.108Z,99006.75
2023-03-27T22:33:58.843Z,99001.97
2023-03-27T22:36:25.768Z,99008.84
2023-03-27T22:38:52.488Z,99002.25
2023-03-27T22:41:20.381Z,99011.78
2023-03-27T22:43:49.861Z,99004.22
2023-03-27T22:46:23.452Z,99022.59
2023-03-27T22:48:57.793Z,99005.78
2023-03-27T22:51:26.793Z,99011.28
2023-03-27T22:53:54.617Z,99005.16
2023-03-27T22:56:21.785Z,99012.06
2023-03-27T22:58:48.686Z,99010.81
2023-03-27T23:01:15.815Z,99009.06
2023-03-27T23:03:42.598Z,99010.44
2023-03-27T23:06:17.022Z,99018.59
2023-03-27T23:08:43.454Z,99004.59
2023-03-27T23:11:12.881Z,99005.38
2023-03-27T23:13:41.549Z,99012.69
2023-03-27T23:16:09.454Z,98997.78
2023-03-27T23:18:36.460Z,98997.97
2023-03-27T23:21:11.699Z,98996.97
2023-03-27T23:23:40.413Z,99006.56
2023-03-27T23:26:09.710Z,99008.41
2023-03-27T23:28:38.859Z,99017.78
2023-03-27T23:31:08.227Z,99020.81
2023-03-27T23:33:40.920Z,99031.88
2023-03-27T23:36:16.366Z,99015.13
2023-03-27T23:38:44.532Z,99029.25
2023-03-27T23:41:12.917Z,99033.63
2023-03-27T23:43:39.597Z,99028.97
2023-03-27T23:46:10.402Z,99026.13
2023-03-27T23:48:42.252Z,99041.94
2023-03-27T23:51:09.804Z,99031.88
2023-03-27T23:53:37.160Z,99030.84
2023-03-27T23:56:04.179Z,99036.50
2023-03-27T23:58:33.625Z,99036.84
